Teasdale, Utah
Current Conditions -  °F | °C
As of 9:53 AM on Tuesday 27 Jan 2015 (Local Time) from KBCE Reporting Station
Overcast Overcast  
Wind Chill: 27°   Ceiling: 300
Heat Index: 34°   Visibility: 7mi
Dew Point: 33°   Wind: 9mph
Humidity: 96%   Direction: 170°S
Pressure: 30.34"   Gusts: NA
Location:  38.29°N, 111.48°W
Report Text: KBCE 271653Z AUTO 17008KT 7SM OVC003 01/01 A3034 RMK AO2 UPB1556E03B32E34RAB03E04B34E35SNE1556B21E32 SLP254 P0000 T00110006
Loading
Personal Weather Stations






























Interactive Weather Map New forecast layout! Learn more

10-Day Weather Forecast

Advertisements
Track Severe Weather on mobile